< < Back
Terminal Aerodrome Forecast


Current Version              Previous Versions:   1  2  3  4  5  6  7  8  9  

Terminal Aerodrome Forecast

424
FTUS42 KJAX 201700
TAFJAX
TAF
KJAX 201727Z 2018/2118 04008KT P6SM BKN035 OVC090
     FM202300 03006KT P6SM BKN008 OVC030
     FM210200 03006KT P6SM OVC008
     FM210500 02004KT 5SM BR VCSH OVC006=

Latest METAR

408
SAUS80 KWBC 210300 CCA
MTRJAX
METAR KJAX 210256Z 03009KT 10SM OVC007 14/13 A3013 RMK AO2 SLP204
T01440133 50001


USA.gov is the U.S. government's official web portal to all federal, state and local government web resources and services.